Terminal Aerodrome Forecast
Issued by NWS Cleveland, OH

Home | Current Version | Previous Version | Graphics & Text | Print | Product List | Glossary On
Versions: 1 2 3 4 5 6 7 8 9 10 11 12 13 14 15 16
000
FTUS41 KCLE 292340
TAFYNG
TAF
KYNG 292340Z 3000/3024 12004KT P6SM SCT070 BKN200
     FM300200 VRB04KT P6SM VCSH BKN070 OVC120
      TEMPO 3003/3007 5SM -SHRA BKN060
     FM300900 19003KT 4SM BR VCSH BKN060 OVC080
     FM301500 24005KT 6SM HZ VCSH BKN060=

USA.gov is the U.S. government's official web portal to all federal, state and local government web resources and services.